sensor_id;sensor_type;location;lat;lon;timestamp;pressure;altitude;pressure_sealevel;temperature;humidity
60345;BME280;46188;52.324;8.032;2022-12-07T00:01:35;100402.19;;;4.41;100.00
60345;BME280;46188;52.324;8.032;2022-12-07T00:04:03;100396.09;;;4.40;100.00
60345;BME280;46188;52.324;8.032;2022-12-07T00:06:37;100396.69;;;4.33;100.00
60345;BME280;46188;52.324;8.032;2022-12-07T00:09:04;100401.16;;;4.36;100.00
60345;BME280;46188;52.324;8.032;2022-12-07T00:11:29;100395.94;;;4.36;100.00
60345;BME280;46188;52.324;8.032;2022-12-07T00:13:57;100391.53;;;4.35;100.00
60345;BME280;46188;52.324;8.032;2022-12-07T00:16:26;100387.75;;;4.27;100.00
60345;BME280;46188;52.324;8.032;2022-12-07T00:18:52;100385.97;;;4.24;100.00
60345;BME280;46188;52.324;8.032;2022-12-07T00:21:29;100379.00;;;4.24;100.00
60345;BME280;46188;52.324;8.032;2022-12-07T00:23:55;100383.13;;;4.18;100.00
60345;BME280;46188;52.324;8.032;2022-12-07T00:26:25;100374.47;;;4.19;100.00
60345;BME280;46188;52.324;8.032;2022-12-07T00:28:53;100376.13;;;4.17;100.00
60345;BME280;46188;52.324;8.032;2022-12-07T00:31:21;100368.22;;;4.15;100.00
60345;BME280;46188;52.324;8.032;2022-12-07T00:33:47;100367.47;;;4.18;100.00
60345;BME280;46188;52.324;8.032;2022-12-07T00:36:15;100376.00;;;4.14;100.00
60345;BME280;46188;52.324;8.032;2022-12-07T00:38:41;100362.03;;;4.12;100.00
60345;BME280;46188;52.324;8.032;2022-12-07T00:41:15;100367.13;;;4.09;100.00
60345;BME280;46188;52.324;8.032;2022-12-07T00:43:41;100364.38;;;4.04;100.00
60345;BME280;46188;52.324;8.032;2022-12-07T00:46:07;100371.19;;;4.00;100.00
60345;BME280;46188;52.324;8.032;2022-12-07T00:48:35;100371.75;;;3.92;100.00
60345;BME280;46188;52.324;8.032;2022-12-07T00:51:02;100368.38;;;3.94;100.00
60345;BME280;46188;52.324;8.032;2022-12-07T00:53:28;100365.59;;;3.90;100.00
60345;BME280;46188;52.324;8.032;2022-12-07T00:55:54;100369.03;;;3.88;100.00
60345;BME280;46188;52.324;8.032;2022-12-07T00:58:20;100364.88;;;3.94;100.00
60345;BME280;46188;52.324;8.032;2022-12-07T01:00:46;100365.72;;;3.93;100.00
60345;BME280;46188;52.324;8.032;2022-12-07T01:03:13;100362.13;;;3.89;100.00
60345;BME280;46188;52.324;8.032;2022-12-07T01:05:39;100358.41;;;3.82;100.00
60345;BME280;46188;52.324;8.032;2022-12-07T01:08:05;100359.38;;;3.86;100.00
60345;BME280;46188;52.324;8.032;2022-12-07T01:10:32;100361.09;;;3.85;100.00
60345;BME280;46188;52.324;8.032;2022-12-07T01:12:58;100361.94;;;3.84;100.00
60345;BME280;46188;52.324;8.032;2022-12-07T01:15:24;100367.03;;;3.81;100.00
60345;BME280;46188;52.324;8.032;2022-12-07T01:17:50;100362.69;;;3.82;100.00
60345;BME280;46188;52.324;8.032;2022-12-07T01:20:16;100367.38;;;3.91;100.00
60345;BME280;46188;52.324;8.032;2022-12-07T01:22:43;100368.09;;;3.86;100.00
60345;BME280;46188;52.324;8.032;2022-12-07T01:25:09;100364.44;;;3.81;100.00
60345;BME280;46188;52.324;8.032;2022-12-07T01:27:36;100367.31;;;3.89;100.00
60345;BME280;46188;52.324;8.032;2022-12-07T01:30:03;100367.31;;;3.89;100.00
60345;BME280;46188;52.324;8.032;2022-12-07T01:32:29;100368.97;;;3.87;100.00
60345;BME280;46188;52.324;8.032;2022-12-07T01:34:55;100359.16;;;3.80;100.00
60345;BME280;46188;52.324;8.032;2022-12-07T01:37:20;100363.63;;;3.82;100.00
60345;BME280;46188;52.324;8.032;2022-12-07T01:39:50;100364.38;;;3.80;100.00
60345;BME280;46188;52.324;8.032;2022-12-07T01:42:17;100362.59;;;3.79;100.00
60345;BME280;46188;52.324;8.032;2022-12-07T01:47:51;100378.03;;;3.73;100.00
60345;BME280;46188;52.324;8.032;2022-12-07T01:50:19;100376.13;;;3.68;100.00
60345;BME280;46188;52.324;8.032;2022-12-07T01:52:48;100373.47;;;3.67;100.00
60345;BME280;46188;52.324;8.032;2022-12-07T01:55:16;100378.56;;;3.64;100.00
60345;BME280;46188;52.324;8.032;2022-12-07T01:57:45;100376.00;;;3.65;100.00
60345;BME280;46188;52.324;8.032;2022-12-07T02:00:13;100374.25;;;3.64;100.00
60345;BME280;46188;52.324;8.032;2022-12-07T02:02:47;100378.97;;;3.52;100.00
60345;BME280;46188;52.324;8.032;2022-12-07T02:05:14;100373.66;;;3.49;100.00
60345;BME280;46188;52.324;8.032;2022-12-07T02:07:40;100373.53;;;3.46;100.00
60345;BME280;46188;52.324;8.032;2022-12-07T02:12:42;100365.31;;;3.35;100.00
60345;BME280;46188;52.324;8.032;2022-12-07T02:15:10;100360.66;;;3.26;100.00
60345;BME280;46188;52.324;8.032;2022-12-07T02:18:07;100368.53;;;3.28;100.00
60345;BME280;46188;52.324;8.032;2022-12-07T02:20:47;100356.97;;;3.21;100.00
60345;BME280;46188;52.324;8.032;2022-12-07T02:23:28;100361.41;;;3.24;100.00
60345;BME280;46188;52.324;8.032;2022-12-07T02:28:32;100350.81;;;3.19;100.00
60345;BME280;46188;52.324;8.032;2022-12-07T02:31:06;100355.94;;;3.18;100.00
60345;BME280;46188;52.324;8.032;2022-12-07T02:33:50;100351.28;;;3.09;100.00
60345;BME280;46188;52.324;8.032;2022-12-07T02:36:24;100352.81;;;3.04;100.00
60345;BME280;46188;52.324;8.032;2022-12-07T02:39:25;100344.88;;;3.01;100.00
60345;BME280;46188;52.324;8.032;2022-12-07T02:41:52;100357.09;;;3.02;100.00
60345;BME280;46188;52.324;8.032;2022-12-07T02:44:24;100355.16;;;2.98;100.00
60345;BME280;46188;52.324;8.032;2022-12-07T02:47:18;100351.56;;;2.94;100.00
60345;BME280;46188;52.324;8.032;2022-12-07T02:49:44;100354.16;;;2.94;100.00
60345;BME280;46188;52.324;8.032;2022-12-07T02:52:11;100345.22;;;2.87;100.00
60345;BME280;46188;52.324;8.032;2022-12-07T02:54:39;100341.63;;;2.84;100.00
60345;BME280;46188;52.324;8.032;2022-12-07T03:00:07;100337.75;;;2.74;100.00
60345;BME280;46188;52.324;8.032;2022-12-07T03:05:58;100330.75;;;2.73;100.00
60345;BME280;46188;52.324;8.032;2022-12-07T03:11:42;100337.75;;;2.74;100.00
60345;BME280;46188;52.324;8.032;2022-12-07T03:16:52;100336.88;;;2.73;100.00
60345;BME280;46188;52.324;8.032;2022-12-07T03:19:21;100341.16;;;2.73;100.00
60345;BME280;46188;52.324;8.032;2022-12-07T03:21:57;100331.34;;;2.66;100.00
60345;BME280;46188;52.324;8.032;2022-12-07T03:24:28;100342.63;;;2.66;100.00
60345;BME280;46188;52.324;8.032;2022-12-07T03:27:03;100342.47;;;2.62;100.00
60345;BME280;46188;52.324;8.032;2022-12-07T03:29:46;100339.75;;;2.58;100.00
60345;BME280;46188;52.324;8.032;2022-12-07T03:35:18;100328.88;;;2.48;100.00
60345;BME280;46188;52.324;8.032;2022-12-07T03:37:51;100332.19;;;2.44;100.00
60345;BME280;46188;52.324;8.032;2022-12-07T03:42:55;100328.00;;;2.47;100.00
60345;BME280;46188;52.324;8.032;2022-12-07T03:45:39;100321.94;;;2.48;100.00
60345;BME280;46188;52.324;8.032;2022-12-07T03:50:44;100318.34;;;2.45;100.00
60345;BME280;46188;52.324;8.032;2022-12-07T03:56:04;100321.53;;;2.37;100.00
60345;BME280;46188;52.324;8.032;2022-12-07T03:58:31;100318.84;;;2.36;100.00
60345;BME280;46188;52.324;8.032;2022-12-07T04:00:57;100323.31;;;2.38;100.00
60345;BME280;46188;52.324;8.032;2022-12-07T04:03:22;100330.34;;;2.41;100.00
60345;BME280;46188;52.324;8.032;2022-12-07T04:05:48;100330.28;;;2.39;100.00
60345;BME280;46188;52.324;8.032;2022-12-07T04:08:14;100331.78;;;2.34;100.00
60345;BME280;46188;52.324;8.032;2022-12-07T04:10:39;100337.88;;;2.35;100.00
60345;BME280;46188;52.324;8.032;2022-12-07T04:13:08;100345.69;;;2.35;100.00
60345;BME280;46188;52.324;8.032;2022-12-07T04:15:34;100331.22;;;2.42;100.00
60345;BME280;46188;52.324;8.032;2022-12-07T04:17:59;100335.88;;;2.49;100.00
60345;BME280;46188;52.324;8.032;2022-12-07T04:20:25;100334.09;;;2.48;100.00
60345;BME280;46188;52.324;8.032;2022-12-07T04:22:50;100339.16;;;2.45;100.00
60345;BME280;46188;52.324;8.032;2022-12-07T04:25:16;100329.66;;;2.45;100.00
60345;BME280;46188;52.324;8.032;2022-12-07T04:27:41;100324.56;;;2.48;100.00
60345;BME280;46188;52.324;8.032;2022-12-07T04:30:07;100329.13;;;2.54;100.00
60345;BME280;46188;52.324;8.032;2022-12-07T04:32:33;100330.88;;;2.53;100.00
60345;BME280;46188;52.324;8.032;2022-12-07T04:35:02;100330.88;;;2.53;100.00
60345;BME280;46188;52.324;8.032;2022-12-07T04:37:27;100324.94;;;2.57;100.00
60345;BME280;46188;52.324;8.032;2022-12-07T04:39:53;100325.19;;;2.64;100.00
60345;BME280;46188;52.324;8.032;2022-12-07T04:42:18;100316.44;;;2.62;100.00
60345;BME280;46188;52.324;8.032;2022-12-07T04:44:44;100321.59;;;2.60;100.00
60345;BME280;46188;52.324;8.032;2022-12-07T04:47:09;100325.75;;;2.56;100.00
60345;BME280;46188;52.324;8.032;2022-12-07T04:49:35;100322.94;;;2.50;100.00
60345;BME280;46188;52.324;8.032;2022-12-07T04:52:01;100328.81;;;2.46;100.00
60345;BME280;46188;52.324;8.032;2022-12-07T04:54:26;100330.47;;;2.44;100.00
60345;BME280;46188;52.324;8.032;2022-12-07T04:56:52;100329.53;;;2.42;100.00
60345;BME280;46188;52.324;8.032;2022-12-07T04:59:18;100326.66;;;2.36;100.00
60345;BME280;46188;52.324;8.032;2022-12-07T05:01:46;100330.06;;;2.35;100.00
60345;BME280;46188;52.324;8.032;2022-12-07T05:04:11;100336.13;;;2.34;100.00
60345;BME280;46188;52.324;8.032;2022-12-07T05:06:37;100330.84;;;2.32;100.00
60345;BME280;46188;52.324;8.032;2022-12-07T05:09:03;100334.34;;;2.33;100.00
60345;BME280;46188;52.324;8.032;2022-12-07T05:11:29;100333.59;;;2.35;100.00
60345;BME280;46188;52.324;8.032;2022-12-07T05:14:19;100328.44;;;2.37;100.00
60345;BME280;46188;52.324;8.032;2022-12-07T05:16:47;100327.38;;;2.32;100.00
60345;BME280;46188;52.324;8.032;2022-12-07T05:19:13;100322.28;;;2.35;100.00
60345;BME280;46188;52.324;8.032;2022-12-07T05:21:40;100322.47;;;2.39;100.00
60345;BME280;46188;52.324;8.032;2022-12-07T05:24:07;100320.00;;;2.43;100.00
60345;BME280;46188;52.324;8.032;2022-12-07T05:26:33;100318.19;;;2.40;100.00
60345;BME280;46188;52.324;8.032;2022-12-07T05:28:59;100318.03;;;2.37;100.00
60345;BME280;46188;52.324;8.032;2022-12-07T05:31:25;100315.38;;;2.35;100.00
60345;BME280;46188;52.324;8.032;2022-12-07T05:33:51;100319.81;;;2.38;100.00
60345;BME280;46188;52.324;8.032;2022-12-07T05:36:17;100314.47;;;2.35;100.00
60345;BME280;46188;52.324;8.032;2022-12-07T05:38:42;100312.13;;;2.41;100.00
60345;BME280;46188;52.324;8.032;2022-12-07T05:41:08;100316.72;;;2.47;100.00
60345;BME280;46188;52.324;8.032;2022-12-07T05:43:57;100317.66;;;2.49;100.00
60345;BME280;46188;52.324;8.032;2022-12-07T05:46:23;100319.31;;;2.47;100.00
60345;BME280;46188;52.324;8.032;2022-12-07T05:48:48;100316.72;;;2.47;100.00
60345;BME280;46188;52.324;8.032;2022-12-07T05:51:14;100308.94;;;2.48;100.00
60345;BME280;46188;52.324;8.032;2022-12-07T05:53:39;100318.34;;;2.45;100.00
60345;BME280;46188;52.324;8.032;2022-12-07T05:56:05;100321.72;;;2.42;100.00
60345;BME280;46188;52.324;8.032;2022-12-07T05:58:30;100321.72;;;2.42;100.00
60345;BME280;46188;52.324;8.032;2022-12-07T06:01:14;100321.72;;;2.42;100.00
60345;BME280;46188;52.324;8.032;2022-12-07T06:03:40;100321.59;;;2.39;100.00
60345;BME280;46188;52.324;8.032;2022-12-07T06:06:05;100316.19;;;2.34;100.00
60345;BME280;46188;52.324;8.032;2022-12-07T06:08:31;100315.38;;;2.35;100.00
60345;BME280;46188;52.324;8.032;2022-12-07T06:10:56;100310.19;;;2.35;100.00
60345;BME280;46188;52.324;8.032;2022-12-07T06:13:40;100309.31;;;2.36;100.00
60345;BME280;46188;52.324;8.032;2022-12-07T06:16:06;100314.66;;;2.39;100.00
60345;BME280;46188;52.324;8.032;2022-12-07T06:18:31;100319.81;;;2.38;100.00
60345;BME280;46188;52.324;8.032;2022-12-07T06:20:57;100309.16;;;2.32;100.00
60345;BME280;46188;52.324;8.032;2022-12-07T06:23:22;100312.50;;;2.29;100.00
60345;BME280;46188;52.324;8.032;2022-12-07T06:25:48;100309.72;;;2.25;100.00
60345;BME280;46188;52.324;8.032;2022-12-07T06:28:13;100320.38;;;2.31;100.00
60345;BME280;46188;52.324;8.032;2022-12-07T06:30:39;100311.88;;;2.35;100.00
60345;BME280;46188;52.324;8.032;2022-12-07T06:33:04;100306.78;;;2.38;100.00
60345;BME280;46188;52.324;8.032;2022-12-07T06:35:29;100306.94;;;2.41;100.00
60345;BME280;46188;52.324;8.032;2022-12-07T06:37:57;100310.47;;;2.43;100.00
60345;BME280;46188;52.324;8.032;2022-12-07T06:40:22;100315.81;;;2.46;100.00
60345;BME280;46188;52.324;8.032;2022-12-07T06:42:48;100307.94;;;2.45;100.00
60345;BME280;46188;52.324;8.032;2022-12-07T06:45:13;100315.56;;;2.40;100.00
60345;BME280;46188;52.324;8.032;2022-12-07T06:47:38;100318.03;;;2.37;100.00
60345;BME280;46188;52.324;8.032;2022-12-07T06:50:04;100323.94;;;2.33;100.00
60345;BME280;46188;52.324;8.032;2022-12-07T06:52:31;100320.38;;;2.31;100.00
60345;BME280;46188;52.324;8.032;2022-12-07T06:54:56;100329.84;;;2.29;100.00
60345;BME280;46188;52.324;8.032;2022-12-07T06:57:22;100321.19;;;2.30;100.00
60345;BME280;46188;52.324;8.032;2022-12-07T06:59:47;100333.53;;;2.34;100.00
60345;BME280;46188;52.324;8.032;2022-12-07T07:02:13;100339.59;;;2.34;100.00
60345;BME280;46188;52.324;8.032;2022-12-07T07:04:38;100333.66;;;2.37;100.00
60345;BME280;46188;52.324;8.032;2022-12-07T07:07:04;100328.44;;;2.37;100.00
60345;BME280;46188;52.324;8.032;2022-12-07T07:09:29;100344.75;;;2.33;100.00
60345;BME280;46188;52.324;8.032;2022-12-07T07:11:55;100331.53;;;2.28;100.00
60345;BME280;46188;52.324;8.032;2022-12-07T07:14:20;100346.91;;;2.22;100.00
60345;BME280;46188;52.324;8.032;2022-12-07T07:16:47;100341.63;;;2.20;100.00
60345;BME280;46188;52.324;8.032;2022-12-07T07:19:12;100342.66;;;2.24;100.00
60345;BME280;46188;52.324;8.032;2022-12-07T07:21:37;100335.84;;;2.28;100.00
60345;BME280;46188;52.324;8.032;2022-12-07T07:24:03;100337.50;;;2.26;100.00
60345;BME280;46188;52.324;8.032;2022-12-07T07:26:29;100339.25;;;2.27;100.00
60345;BME280;46188;52.324;8.032;2022-12-07T07:28:55;100340.25;;;2.29;100.00
60345;BME280;46188;52.324;8.032;2022-12-07T07:31:21;100347.19;;;2.30;100.00
60345;BME280;46188;52.324;8.032;2022-12-07T07:33:46;100352.41;;;2.30;100.00
60345;BME280;46188;52.324;8.032;2022-12-07T07:36:12;100355.41;;;2.39;100.00
60345;BME280;46188;52.324;8.032;2022-12-07T07:38:37;100355.47;;;2.40;100.00
60345;BME280;46188;52.324;8.032;2022-12-07T07:41:03;100357.94;;;2.37;100.00
60345;BME280;46188;52.324;8.032;2022-12-07T07:43:28;100340.75;;;2.41;100.00
60345;BME280;46188;52.324;8.032;2022-12-07T07:45:54;100347.03;;;2.46;100.00
60345;BME280;46188;52.324;8.032;2022-12-07T07:48:19;100345.44;;;2.50;100.00
60345;BME280;46188;52.324;8.032;2022-12-07T07:50:45;100345.75;;;2.57;100.00
60345;BME280;46188;52.324;8.032;2022-12-07T07:53:10;100351.91;;;2.59;100.00
60345;BME280;46188;52.324;8.032;2022-12-07T07:55:36;100350.28;;;2.62;100.00
60345;BME280;46188;52.324;8.032;2022-12-07T07:58:01;100350.97;;;2.57;100.00
60345;BME280;46188;52.324;8.032;2022-12-07T08:00:27;100361.50;;;2.61;100.00
60345;BME280;46188;52.324;8.032;2022-12-07T08:02:52;100356.69;;;2.70;100.00
60345;BME280;46188;52.324;8.032;2022-12-07T08:05:18;100352.97;;;2.65;100.00
60345;BME280;46188;52.324;8.032;2022-12-07T08:07:43;100352.16;;;2.66;100.00
60345;BME280;46188;52.324;8.032;2022-12-07T08:10:12;100351.47;;;2.70;100.00
60345;BME280;46188;52.324;8.032;2022-12-07T08:12:40;100352.22;;;2.67;100.00
60345;BME280;46188;52.324;8.032;2022-12-07T08:15:28;100350.34;;;2.63;100.00
60345;BME280;46188;52.324;8.032;2022-12-07T08:17:53;100357.44;;;2.67;100.00
60345;BME280;46188;52.324;8.032;2022-12-07T08:20:20;100359.66;;;2.79;100.00
60345;BME280;46188;52.324;8.032;2022-12-07T08:22:45;100369.44;;;2.85;100.00
60345;BME280;46188;52.324;8.032;2022-12-07T08:25:10;100371.00;;;2.81;100.00
60345;BME280;46188;52.324;8.032;2022-12-07T08:27:36;100368.31;;;2.78;100.00
60345;BME280;46188;52.324;8.032;2022-12-07T08:30:02;100371.66;;;2.75;100.00
60345;BME280;46188;52.324;8.032;2022-12-07T08:32:27;100360.38;;;2.75;100.00
60345;BME280;46188;52.324;8.032;2022-12-07T08:34:53;100363.91;;;2.77;100.00
60345;BME280;46188;52.324;8.032;2022-12-07T08:37:18;100362.63;;;2.88;100.00
60345;BME280;46188;52.324;8.032;2022-12-07T08:39:43;100362.16;;;2.99;100.00
60345;BME280;46188;52.324;8.032;2022-12-07T08:42:09;100349.28;;;3.02;100.00
60345;BME280;46188;52.324;8.032;2022-12-07T08:44:34;100358.78;;;3.01;100.00
60345;BME280;46188;52.324;8.032;2022-12-07T08:47:02;100355.47;;;3.05;100.00
60345;BME280;46188;52.324;8.032;2022-12-07T08:49:38;100357.63;;;3.16;100.00
60345;BME280;46188;52.324;8.032;2022-12-07T08:52:05;100357.75;;;3.41;100.00
60345;BME280;46188;52.324;8.032;2022-12-07T08:54:31;100361.34;;;3.45;100.00
60345;BME280;46188;52.324;8.032;2022-12-07T08:56:59;100367.69;;;3.29;100.00
60345;BME280;46188;52.324;8.032;2022-12-07T08:59:26;100357.44;;;3.33;100.00
60345;BME280;46188;52.324;8.032;2022-12-07T09:01:52;100368.09;;;3.40;100.00
60345;BME280;46188;52.324;8.032;2022-12-07T09:04:17;100358.31;;;3.34;100.00
60345;BME280;46188;52.324;8.032;2022-12-07T09:06:43;100361.28;;;3.21;100.00
60345;BME280;46188;52.324;8.032;2022-12-07T09:09:09;100365.78;;;3.02;100.00
60345;BME280;46188;52.324;8.032;2022-12-07T09:11:35;100365.78;;;3.02;100.00
60345;BME280;46188;52.324;8.032;2022-12-07T09:14:00;100362.53;;;3.08;100.00
60345;BME280;46188;52.324;8.032;2022-12-07T09:16:26;100359.75;;;3.03;100.00
60345;BME280;46188;52.324;8.032;2022-12-07T09:18:51;100362.16;;;2.99;100.00
60345;BME280;46188;52.324;8.032;2022-12-07T09:21:17;100363.59;;;3.13;100.00
60345;BME280;46188;52.324;8.032;2022-12-07T09:23:42;100362.28;;;3.24;100.00
60345;BME280;46188;52.324;8.032;2022-12-07T09:26:08;100356.31;;;3.49;100.00
60345;BME280;46188;52.324;8.032;2022-12-07T09:28:33;100357.59;;;3.85;100.00
60345;BME280;46188;52.324;8.032;2022-12-07T09:30:59;100369.53;;;4.02;100.00
60345;BME280;46188;52.324;8.032;2022-12-07T09:33:25;100366.41;;;4.13;100.00
60345;BME280;46188;52.324;8.032;2022-12-07T09:35:51;100363.50;;;4.29;100.00
60345;BME280;46188;52.324;8.032;2022-12-07T09:38:18;100362.59;;;4.27;100.00
60345;BME280;46188;52.324;8.032;2022-12-07T09:40:44;100369.19;;;4.17;100.00
60345;BME280;46188;52.324;8.032;2022-12-07T09:43:22;100363.16;;;3.94;100.00
60345;BME280;46188;52.324;8.032;2022-12-07T09:45:51;100354.19;;;3.86;100.00
60345;BME280;46188;52.324;8.032;2022-12-07T09:48:25;100356.72;;;3.84;100.00
60345;BME280;46188;52.324;8.032;2022-12-07T09:50:55;100360.16;;;3.83;100.00
60345;BME280;46188;52.324;8.032;2022-12-07T09:55:54;100359.16;;;3.80;100.00
60345;BME280;46188;52.324;8.032;2022-12-07T09:58:23;100354.63;;;3.74;100.00
60345;BME280;46188;52.324;8.032;2022-12-07T10:03:32;100358.59;;;3.64;100.00
60345;BME280;46188;52.324;8.032;2022-12-07T10:05:58;100348.28;;;3.67;100.00
60345;BME280;46188;52.324;8.032;2022-12-07T10:08:25;100349.13;;;3.66;100.00
60345;BME280;46188;52.324;8.032;2022-12-07T10:10:55;100348.56;;;3.75;100.00
60345;BME280;46188;52.324;8.032;2022-12-07T10:13:41;100337.44;;;3.79;100.00
60345;BME280;46188;52.324;8.032;2022-12-07T10:16:30;100347.13;;;3.83;100.00
60345;BME280;46188;52.324;8.032;2022-12-07T10:18:56;100346.88;;;3.77;100.00
60345;BME280;46188;52.324;8.032;2022-12-07T10:21:24;100344.34;;;3.79;100.00
60345;BME280;46188;52.324;8.032;2022-12-07T10:24:02;100341.41;;;4.45;100.00
60345;BME280;46188;52.324;8.032;2022-12-07T10:26:41;100341.88;;;5.13;100.00
60345;BME280;46188;52.324;8.032;2022-12-07T10:29:20;100344.44;;;4.85;100.00
60345;BME280;46188;52.324;8.032;2022-12-07T10:31:58;100345.31;;;4.84;100.00
60345;BME280;46188;52.324;8.032;2022-12-07T10:34:32;100341.72;;;4.81;100.00
60345;BME280;46188;52.324;8.032;2022-12-07T10:39:48;100337.38;;;4.80;100.00
60345;BME280;46188;52.324;8.032;2022-12-07T10:44:50;100335.00;;;5.46;100.00
60345;BME280;46188;52.324;8.032;2022-12-07T10:47:34;100329.09;;;5.23;100.00
60345;BME280;46188;52.324;8.032;2022-12-07T11:01:25;100314.22;;;4.38;100.00
60345;BME280;46188;52.324;8.032;2022-12-07T11:15:45;100312.44;;;4.90;100.00
60345;BME280;46188;52.324;8.032;2022-12-07T11:18:24;100303.78;;;4.93;100.00
60345;BME280;46188;52.324;8.032;2022-12-07T11:21:16;100307.38;;;4.96;100.00
60345;BME280;46188;52.324;8.032;2022-12-07T11:26:33;100306.78;;;5.05;100.00
60345;BME280;46188;52.324;8.032;2022-12-07T11:34:58;100299.97;;;4.54;100.00
60345;BME280;46188;52.324;8.032;2022-12-07T11:37:32;100295.34;;;4.46;100.00
60345;BME280;46188;52.324;8.032;2022-12-07T11:42:44;100291.00;;;4.46;100.00
60345;BME280;46188;52.324;8.032;2022-12-07T11:45:17;100286.75;;;4.50;100.00
60345;BME280;46188;52.324;8.032;2022-12-07T11:48:14;100272.28;;;4.59;100.00
60345;BME280;46188;52.324;8.032;2022-12-07T11:50:50;100269.25;;;4.74;100.00
60345;BME280;46188;52.324;8.032;2022-12-07T11:53:19;100271.50;;;4.91;100.00
60345;BME280;46188;52.324;8.032;2022-12-07T11:55:51;100270.59;;;4.89;100.00
60345;BME280;46188;52.324;8.032;2022-12-07T12:03:52;100260.34;;;4.95;100.00
60345;BME280;46188;52.324;8.032;2022-12-07T12:06:21;100255.13;;;4.96;100.00
60345;BME280;46188;52.324;8.032;2022-12-07T12:08:52;100248.66;;;5.12;100.00
60345;BME280;46188;52.324;8.032;2022-12-07T12:19:40;100246.50;;;5.60;100.00
60345;BME280;46188;52.324;8.032;2022-12-07T12:22:18;100252.28;;;5.48;100.00
60345;BME280;46188;52.324;8.032;2022-12-07T12:24:51;100252.25;;;5.46;100.00
60345;BME280;46188;52.324;8.032;2022-12-07T12:27:26;100233.22;;;5.85;100.00
60345;BME280;46188;52.324;8.032;2022-12-07T12:29:59;100236.13;;;6.30;100.00
60345;BME280;46188;52.324;8.032;2022-12-07T12:32:36;100234.31;;;6.27;100.00
60345;BME280;46188;52.324;8.032;2022-12-07T12:35:35;100234.00;;;5.81;100.00
60345;BME280;46188;52.324;8.032;2022-12-07T12:38:34;100229.53;;;5.77;100.00
60345;BME280;46188;52.324;8.032;2022-12-07T12:44:01;100215.03;;;5.57;100.00
60345;BME280;46188;52.324;8.032;2022-12-07T12:51:54;100220.94;;;5.81;100.00
60345;BME280;46188;52.324;8.032;2022-12-07T12:54:23;100218.28;;;5.80;100.00
60345;BME280;46188;52.324;8.032;2022-12-07T12:57:11;100217.97;;;5.69;100.00
60345;BME280;46188;52.324;8.032;2022-12-07T13:02:35;100220.44;;;5.63;100.00
60345;BME280;46188;52.324;8.032;2022-12-07T13:15:44;100222.09;;;5.93;100.00
60345;BME280;46188;52.324;8.032;2022-12-07T13:26:14;100208.59;;;5.44;100.00
60345;BME280;46188;52.324;8.032;2022-12-07T13:28:46;100206.94;;;5.47;100.00
60345;BME280;46188;52.324;8.032;2022-12-07T13:33:47;100200.91;;;5.50;100.00
60345;BME280;46188;52.324;8.032;2022-12-07T13:36:33;100197.75;;;5.62;100.00
60345;BME280;46188;52.324;8.032;2022-12-07T13:39:27;100196.44;;;5.78;100.00
60345;BME280;46188;52.324;8.032;2022-12-07T13:41:58;100184.06;;;5.72;100.00
60345;BME280;46188;52.324;8.032;2022-12-07T13:44:25;100179.09;;;5.48;100.00
60345;BME280;46188;52.324;8.032;2022-12-07T13:47:15;100175.06;;;5.29;100.00
60345;BME280;46188;52.324;8.032;2022-12-07T13:49:48;100177.22;;;5.12;100.00
60345;BME280;46188;52.324;8.032;2022-12-07T13:57:18;100172.72;;;5.08;100.00
60345;BME280;46188;52.324;8.032;2022-12-07T13:59:44;100173.47;;;5.02;100.00
60345;BME280;46188;52.324;8.032;2022-12-07T14:02:31;100178.78;;;5.05;100.00
60345;BME280;46188;52.324;8.032;2022-12-07T14:05:23;100183.81;;;4.99;100.00
60345;BME280;46188;52.324;8.032;2022-12-07T14:07:56;100177.72;;;4.98;100.00
60345;BME280;46188;52.324;8.032;2022-12-07T14:10:36;100183.19;;;5.08;100.00
60345;BME280;46188;52.324;8.032;2022-12-07T14:13:04;100170.06;;;5.06;100.00
60345;BME280;46188;52.324;8.032;2022-12-07T14:15:50;100169.06;;;5.01;100.00
60345;BME280;46188;52.324;8.032;2022-12-07T14:18:38;100174.09;;;4.93;100.00
60345;BME280;46188;52.324;8.032;2022-12-07T14:23:36;100172.94;;;4.84;100.00
60345;BME280;46188;52.324;8.032;2022-12-07T14:26:19;100173.66;;;4.79;100.00
60345;BME280;46188;52.324;8.032;2022-12-07T14:28:46;100176.81;;;4.68;100.00
60345;BME280;46188;52.324;8.032;2022-12-07T14:31:14;100170.00;;;4.44;100.00
60345;BME280;46188;52.324;8.032;2022-12-07T14:33:40;100192.22;;;4.31;100.00
60345;BME280;46188;52.324;8.032;2022-12-07T14:36:09;100194.69;;;3.99;100.00
60345;BME280;46188;52.324;8.032;2022-12-07T14:38:35;100183.44;;;3.75;100.00
60345;BME280;46188;52.324;8.032;2022-12-07T14:41:01;100176.75;;;3.57;100.00
60345;BME280;46188;52.324;8.032;2022-12-07T14:44:13;100179.69;;;3.42;100.00
60345;BME280;46188;52.324;8.032;2022-12-07T14:46:38;100181.31;;;3.39;100.00
60345;BME280;46188;52.324;8.032;2022-12-07T14:49:04;100175.81;;;3.29;100.00
60345;BME280;46188;52.324;8.032;2022-12-07T14:51:30;100169.91;;;3.35;100.00
60345;BME280;46188;52.324;8.032;2022-12-07T14:53:56;100164.59;;;3.32;100.00
60345;BME280;46188;52.324;8.032;2022-12-07T14:56:24;100169.28;;;3.42;100.00
60345;BME280;46188;52.324;8.032;2022-12-07T14:58:50;100162.41;;;3.44;100.00
60345;BME280;46188;52.324;8.032;2022-12-07T15:01:16;100157.09;;;3.41;100.00
60345;BME280;46188;52.324;8.032;2022-12-07T15:03:41;100161.22;;;3.35;100.00
60345;BME280;46188;52.324;8.032;2022-12-07T15:06:06;100161.63;;;3.21;100.00
60345;BME280;46188;52.324;8.032;2022-12-07T15:08:32;100160.66;;;3.19;100.00
60345;BME280;46188;52.324;8.032;2022-12-07T15:10:58;100160.50;;;3.14;100.00
60345;BME280;46188;52.324;8.032;2022-12-07T15:13:24;100152.63;;;3.13;100.00